createdAt,value
2023-01-26T00:01:29.215Z,102156.56
2023-01-26T00:03:57.989Z,102161.97
2023-01-26T00:06:27.696Z,102162.84
2023-01-26T00:08:57.258Z,102154.78
2023-01-26T00:11:29.078Z,102145.75
2023-01-26T00:13:58.251Z,102150.34
2023-01-26T00:16:26.905Z,102151.19
2023-01-26T00:18:54.966Z,102144.94
2023-01-26T00:21:24.385Z,102155.66
2023-01-26T00:23:53.563Z,102144.00
2023-01-26T00:26:22.744Z,102139.56
2023-01-26T00:28:52.366Z,102139.56
2023-01-26T00:31:22.999Z,102126.94
2023-01-26T00:33:51.370Z,102128.78
2023-01-26T00:36:19.548Z,102132.31
2023-01-26T00:38:48.168Z,102123.38
2023-01-26T00:41:29.875Z,102123.38
2023-01-26T00:43:59.151Z,102113.47
2023-01-26T00:46:27.091Z,102099.13
2023-01-26T00:48:54.942Z,102094.59
2023-01-26T00:51:22.779Z,102088.34
2023-01-26T00:53:50.692Z,102094.59
2023-01-26T00:56:20.007Z,102088.34
2023-01-26T00:58:47.939Z,102070.34
2023-01-26T01:01:17.133Z,102063.13
2023-01-26T01:03:45.111Z,102064.09
2023-01-26T01:06:13.022Z,102065.91
2023-01-26T01:08:40.856Z,102071.28
2023-01-26T01:11:10.554Z,102058.72
2023-01-26T01:13:38.929Z,102059.63
2023-01-26T01:16:08.430Z,102056.00
2023-01-26T01:18:38.230Z,102064.09
2023-01-26T01:21:07.945Z,102057.81
2023-01-26T01:23:35.949Z,102057.84
2023-01-26T01:26:04.868Z,102055.13
2023-01-26T01:28:33.266Z,102056.94
2023-01-26T01:31:01.406Z,102048.78
2023-01-26T01:33:29.254Z,102050.63
2023-01-26T01:36:00.166Z,102053.25
2023-01-26T01:38:28.750Z,102049.66
2023-01-26T01:40:57.488Z,102050.63
2023-01-26T01:43:26.427Z,102044.34
2023-01-26T01:45:54.961Z,102038.00
2023-01-26T01:48:29.562Z,102050.56
2023-01-26T01:51:04.157Z,102053.31
2023-01-26T01:53:36.362Z,102040.69
2023-01-26T01:56:09.367Z,102041.66
2023-01-26T01:58:40.071Z,102043.47
2023-01-26T02:01:08.416Z,102031.75
2023-01-26T02:03:38.095Z,102033.50
2023-01-26T02:06:14.756Z,102024.53
2023-01-26T02:08:46.651Z,102040.69
2023-01-26T02:11:19.938Z,102043.38
2023-01-26T02:13:50.229Z,102036.19
2023-01-26T02:16:18.705Z,102034.44
2023-01-26T02:18:47.283Z,102029.91
2023-01-26T02:21:19.280Z,102028.09
2023-01-26T02:23:57.492Z,102023.66
2023-01-26T02:26:28.665Z,102025.41
2023-01-26T02:28:56.865Z,102013.81
2023-01-26T02:31:25.299Z,102012.00
2023-01-26T02:33:54.194Z,102021.91
2023-01-26T02:36:23.855Z,102021.91
2023-01-26T02:39:05.302Z,102019.13
2023-01-26T02:41:52.650Z,102009.34
2023-01-26T02:44:21.293Z,102011.19
2023-01-26T02:46:49.097Z,102019.25
2023-01-26T02:49:35.798Z,102009.44
2023-01-26T02:52:05.231Z,102011.22
2023-01-26T02:54:52.107Z,102012.13
2023-01-26T02:57:21.392Z,102007.63
2023-01-26T02:59:49.314Z,102004.97
2023-01-26T03:02:17.237Z,102004.97
2023-01-26T03:04:47.868Z,102005.81
2023-01-26T03:07:16.043Z,102000.47
2023-01-26T03:09:43.991Z,102002.25
2023-01-26T03:12:13.028Z,102000.47
2023-01-26T03:14:42.646Z,101995.03
2023-01-26T03:17:10.494Z,101997.75
2023-01-26T03:19:55.800Z,101993.25
2023-01-26T03:22:41.041Z,101998.69
2023-01-26T03:25:42.557Z,101988.81
2023-01-26T03:28:13.823Z,101985.31
2023-01-26T03:30:43.103Z,101977.16
2023-01-26T03:33:11.296Z,101981.69
2023-01-26T03:35:39.269Z,101987.09
2023-01-26T03:38:07.038Z,101987.09
2023-01-26T03:41:01.837Z,101984.41
2023-01-26T03:43:47.410Z,101988.00
2023-01-26T03:46:33.953Z,101988.00
2023-01-26T03:49:19.348Z,101979.97
2023-01-26T03:52:08.485Z,101971.00
2023-01-26T03:54:53.657Z,101971.94
2023-01-26T03:57:21.493Z,101974.63
2023-01-26T03:59:50.093Z,101971.88
2023-01-26T04:02:40.379Z,101972.78
2023-01-26T04:05:27.868Z,101974.63
2023-01-26T04:08:20.983Z,101981.78
2023-01-26T04:10:51.114Z,101971.06
2023-01-26T04:13:36.929Z,101980.88
2023-01-26T04:16:27.085Z,101986.31
2023-01-26T04:19:14.595Z,101985.41
2023-01-26T04:21:42.565Z,101984.53
2023-01-26T04:24:22.596Z,101979.13
2023-01-26T04:26:54.752Z,101978.22
2023-01-26T04:29:29.584Z,101988.09
2023-01-26T04:31:57.666Z,101977.31
2023-01-26T04:34:27.784Z,101974.59
2023-01-26T04:36:55.773Z,101976.34
2023-01-26T04:39:26.632Z,101977.28
2023-01-26T04:41:57.167Z,101963.75
2023-01-26T04:44:24.989Z,101971.78
2023-01-26T04:46:53.124Z,101968.22
2023-01-26T04:49:21.209Z,101969.09
2023-01-26T04:51:50.564Z,101967.28
2023-01-26T04:54:18.466Z,101966.38
2023-01-26T04:56:46.878Z,101959.19
2023-01-26T04:59:15.488Z,101964.53
2023-01-26T05:01:44.397Z,101971.72
2023-01-26T05:04:13.813Z,101961.84
2023-01-26T05:06:45.025Z,101961.88
2023-01-26T05:09:14.301Z,101963.63
2023-01-26T05:11:44.340Z,101962.75
2023-01-26T05:14:12.087Z,101965.47
2023-01-26T05:17:12.532Z,101965.47
2023-01-26T05:19:49.503Z,101967.22
2023-01-26T05:22:35.795Z,101964.53
2023-01-26T05:25:23.220Z,101968.13
2023-01-26T05:28:04.851Z,101966.38
2023-01-26T05:30:32.881Z,101972.63
2023-01-26T05:33:03.346Z,101973.47
2023-01-26T05:35:31.265Z,101973.47
2023-01-26T05:37:59.886Z,101974.34
2023-01-26T05:40:31.287Z,101967.16
2023-01-26T05:42:59.234Z,101971.66
2023-01-26T05:45:45.552Z,101979.78
2023-01-26T05:48:15.283Z,101976.19
2023-01-26T05:50:43.198Z,101973.50
2023-01-26T05:53:20.082Z,101979.78
2023-01-26T05:55:50.168Z,101982.44
2023-01-26T05:58:21.678Z,101981.59
2023-01-26T06:00:49.898Z,101982.44
2023-01-26T06:03:24.581Z,101978.84
2023-01-26T06:05:56.057Z,101976.09
2023-01-26T06:08:33.100Z,101987.78
2023-01-26T06:11:37.788Z,101980.72
2023-01-26T06:14:28.496Z,101989.63
2023-01-26T06:16:56.827Z,101993.19
2023-01-26T06:19:25.310Z,101986.91
2023-01-26T06:21:58.193Z,101993.22
2023-01-26T06:24:26.184Z,101991.38
2023-01-26T06:26:55.611Z,101985.94
2023-01-26T06:29:23.528Z,101976.09
2023-01-26T06:31:51.551Z,101980.56
2023-01-26T06:34:19.942Z,101984.97
2023-01-26T06:36:47.897Z,101982.28
2023-01-26T06:39:23.852Z,101988.63
2023-01-26T06:41:51.780Z,101984.97
2023-01-26T06:44:21.077Z,101986.75
2023-01-26T06:46:49.941Z,101982.28
2023-01-26T06:49:17.753Z,101992.16
2023-01-26T06:51:53.377Z,101984.94
2023-01-26T06:54:21.987Z,101985.88
2023-01-26T06:57:18.976Z,101982.28
2023-01-26T07:00:06.979Z,101994.84
2023-01-26T07:02:53.509Z,101990.38
2023-01-26T07:05:21.386Z,102004.72
2023-01-26T07:07:49.164Z,102000.22
2023-01-26T07:10:17.121Z,102001.09
2023-01-26T07:12:46.873Z,102000.19
2023-01-26T07:15:16.159Z,101996.56
2023-01-26T07:17:44.023Z,102003.75
2023-01-26T07:20:12.959Z,102001.03
2023-01-26T07:22:40.917Z,102000.16
2023-01-26T07:25:09.196Z,102001.03
2023-01-26T07:27:37.071Z,101994.75
2023-01-26T07:30:05.500Z,101997.41
2023-01-26T07:32:34.653Z,101990.19
2023-01-26T07:35:02.488Z,101981.25
2023-01-26T07:37:30.701Z,101982.97
2023-01-26T07:39:58.440Z,101987.44
2023-01-26T07:42:26.205Z,101990.13
2023-01-26T07:45:06.930Z,101992.84
2023-01-26T07:47:37.568Z,101998.19
2023-01-26T07:50:07.227Z,101993.72
2023-01-26T07:52:35.012Z,101995.50
2023-01-26T07:55:02.897Z,102001.78
2023-01-26T07:57:30.728Z,102004.47
2023-01-26T07:59:58.681Z,102005.34
2023-01-26T08:02:26.499Z,102005.34
2023-01-26T08:04:55.726Z,101998.16
2023-01-26T08:07:23.500Z,102002.66
2023-01-26T08:09:51.321Z,102005.31
2023-01-26T08:12:19.226Z,102002.63
2023-01-26T08:14:47.429Z,102009.78
2023-01-26T08:17:17.368Z,101999.91
2023-01-26T08:19:45.527Z,102002.56
2023-01-26T08:22:14.840Z,102000.75
2023-01-26T08:24:42.792Z,102008.84
2023-01-26T08:27:10.880Z,102015.06
2023-01-26T08:29:38.831Z,102014.13
2023-01-26T08:32:08.310Z,102023.06
2023-01-26T08:34:36.570Z,102011.34
2023-01-26T08:37:04.617Z,102015.81
2023-01-26T08:39:34.007Z,102024.72
2023-01-26T08:42:01.877Z,102017.53
2023-01-26T08:44:29.664Z,102019.28
2023-01-26T08:46:57.429Z,102025.56
2023-01-26T08:49:25.344Z,102026.47
2023-01-26T08:51:53.283Z,102019.22
2023-01-26T08:54:21.079Z,102021.91
2023-01-26T08:56:50.224Z,102023.69
2023-01-26T08:59:17.995Z,102027.25
2023-01-26T09:01:45.862Z,102023.69
2023-01-26T09:04:13.736Z,102027.25
2023-01-26T09:06:41.574Z,102031.72
2023-01-26T09:09:13.156Z,102030.78
2023-01-26T09:11:41.106Z,102028.03
2023-01-26T09:14:10.306Z,102037.00
2023-01-26T09:16:38.201Z,102036.13
2023-01-26T09:19:06.035Z,102040.59
2023-01-26T09:21:34.129Z,102037.00
2023-01-26T09:24:02.562Z,102042.41
2023-01-26T09:26:31.259Z,102047.78
2023-01-26T09:28:59.295Z,102043.28
2023-01-26T09:31:28.755Z,102046.00
2023-01-26T09:33:56.562Z,102049.59
2023-01-26T09:36:24.413Z,102052.31
2023-01-26T09:38:54.241Z,102051.38
2023-01-26T09:41:44.375Z,102053.13
2023-01-26T09:44:19.726Z,102048.66
2023-01-26T09:47:02.673Z,102045.03
2023-01-26T09:49:38.192Z,102046.00
2023-01-26T09:52:11.403Z,102047.72
2023-01-26T09:54:42.838Z,102059.41
2023-01-26T09:57:17.648Z,102054.84
2023-01-26T09:59:49.962Z,102051.25
2023-01-26T10:02:30.547Z,102048.56
2023-01-26T10:05:02.546Z,102045.78
2023-01-26T10:07:30.457Z,102036.91
2023-01-26T10:09:58.427Z,102034.09
2023-01-26T10:12:31.708Z,102030.47
2023-01-26T10:15:03.930Z,102040.31
2023-01-26T10:17:36.797Z,102031.34
2023-01-26T10:20:07.379Z,102028.41
2023-01-26T10:22:44.437Z,102023.28
2023-01-26T10:25:18.407Z,102022.31
2023-01-26T10:27:46.956Z,102020.56
2023-01-26T10:30:16.583Z,102024.09
2023-01-26T10:32:48.024Z,102030.38
2023-01-26T10:35:19.857Z,102026.78
2023-01-26T10:37:48.302Z,102019.63
2023-01-26T10:40:17.398Z,102011.50
2023-01-26T10:42:56.240Z,102008.69
2023-01-26T10:45:30.493Z,102014.06
2023-01-26T10:48:17.636Z,102014.03
2023-01-26T10:50:45.801Z,102016.84
2023-01-26T10:53:19.095Z,102017.63
2023-01-26T10:56:00.053Z,102003.22
2023-01-26T10:58:44.998Z,102005.91
2023-01-26T11:01:15.634Z,102006.88
2023-01-26T11:04:01.451Z,102009.50
2023-01-26T11:06:30.518Z,102009.53
2023-01-26T11:09:11.313Z,102004.09
2023-01-26T11:11:42.906Z,102001.44
2023-01-26T11:14:12.788Z,101999.59
2023-01-26T11:16:42.939Z,101994.16
2023-01-26T11:19:15.181Z,101988.75
2023-01-26T11:21:47.532Z,101986.97
2023-01-26T11:24:21.487Z,101987.88
2023-01-26T11:27:13.807Z,101984.16
2023-01-26T11:29:54.331Z,101986.00
2023-01-26T11:32:31.373Z,101984.16
2023-01-26T11:35:14.186Z,101985.91
2023-01-26T11:37:46.256Z,101985.13
2023-01-26T11:40:38.182Z,101987.66
2023-01-26T11:43:35.754Z,101984.09
2023-01-26T11:46:26.945Z,101985.84
2023-01-26T11:49:09.751Z,101995.69
2023-01-26T11:51:48.791Z,101996.56
2023-01-26T11:54:31.220Z,101991.97
2023-01-26T11:57:09.414Z,101987.47
2023-01-26T11:59:42.959Z,101984.72
2023-01-26T12:02:27.707Z,101984.63
2023-01-26T12:04:58.766Z,101976.59
2023-01-26T12:07:31.285Z,101981.00
2023-01-26T12:10:01.541Z,101980.13
2023-01-26T12:12:38.358Z,101964.69
2023-01-26T12:15:14.381Z,101961.97
2023-01-26T12:17:52.454Z,101955.69
2023-01-26T12:20:28.458Z,101949.34
2023-01-26T12:23:04.828Z,101950.22
2023-01-26T12:25:36.007Z,101949.31
2023-01-26T12:28:17.942Z,101942.03
2023-01-26T12:30:53.393Z,101934.88
2023-01-26T12:33:21.498Z,101929.47
2023-01-26T12:36:05.994Z,101926.66
2023-01-26T12:38:44.670Z,101923.91
2023-01-26T12:41:19.987Z,101919.44
2023-01-26T12:43:58.260Z,101912.19
2023-01-26T12:46:32.501Z,101913.97
2023-01-26T12:49:05.521Z,101904.00
2023-01-26T12:51:36.172Z,101902.94
2023-01-26T12:54:11.991Z,101907.69
2023-01-26T12:56:45.925Z,101910.22
2023-01-26T12:59:38.898Z,101911.03
2023-01-26T13:02:20.419Z,101905.66
2023-01-26T13:04:49.281Z,101911.00
2023-01-26T13:07:36.539Z,101912.72
2023-01-26T13:10:30.784Z,101916.31
2023-01-26T13:13:00.844Z,101916.22
2023-01-26T13:15:30.300Z,101914.38
2023-01-26T13:18:00.447Z,101919.72
2023-01-26T13:20:52.112Z,101906.22
2023-01-26T13:23:53.154Z,101918.00
2023-01-26T13:26:26.501Z,101910.69
2023-01-26T13:29:32.674Z,101908.81
2023-01-26T13:32:02.737Z,101909.75
2023-01-26T13:34:36.687Z,101911.44
2023-01-26T13:37:09.952Z,101910.50
2023-01-26T13:39:42.449Z,101909.56
2023-01-26T13:42:21.495Z,101905.94
2023-01-26T13:44:57.717Z,101906.81
2023-01-26T13:47:29.409Z,101898.69
2023-01-26T13:49:57.224Z,101904.09
2023-01-26T13:52:26.979Z,101901.34
2023-01-26T13:54:57.761Z,101894.13
2023-01-26T13:57:28.524Z,101899.44
2023-01-26T13:59:59.081Z,101905.72
2023-01-26T14:02:28.589Z,101897.63
2023-01-26T14:04:58.223Z,101895.81
2023-01-26T14:07:29.540Z,101893.94
2023-01-26T14:10:01.675Z,101890.34
2023-01-26T14:12:34.488Z,101899.56
2023-01-26T14:15:05.714Z,101878.72
2023-01-26T14:17:36.633Z,101886.72
2023-01-26T14:20:22.125Z,101891.19
2023-01-26T14:23:04.210Z,101897.47
2023-01-26T14:25:32.234Z,101894.81
2023-01-26T14:28:01.468Z,101897.44
2023-01-26T14:30:31.729Z,101891.16
2023-01-26T14:33:04.965Z,101900.03
2023-01-26T14:35:33.385Z,101898.31
2023-01-26T14:38:15.076Z,101897.28
2023-01-26T14:40:47.196Z,101894.66
2023-01-26T14:43:17.228Z,101901.88
2023-01-26T14:45:50.006Z,101909.91
2023-01-26T14:48:21.754Z,101900.94
2023-01-26T14:50:50.092Z,101908.97
2023-01-26T14:53:22.131Z,101907.13
2023-01-26T14:55:51.689Z,101914.34
2023-01-26T14:58:26.327Z,101906.19
2023-01-26T15:00:54.893Z,101902.59
2023-01-26T15:03:27.254Z,101910.66
2023-01-26T15:06:07.452Z,101910.66
2023-01-26T15:08:36.356Z,101907.13
2023-01-26T15:11:21.751Z,101907.13
2023-01-26T15:13:55.256Z,101917.91
2023-01-26T15:16:25.046Z,101922.44
2023-01-26T15:18:59.848Z,101928.69
2023-01-26T15:21:33.906Z,101928.69
2023-01-26T15:24:01.934Z,101927.88
2023-01-26T15:26:32.773Z,101931.38
2023-01-26T15:29:05.717Z,101932.22
2023-01-26T15:31:35.252Z,101937.50
2023-01-26T15:34:04.086Z,101925.19
2023-01-26T15:36:35.241Z,101920.53
2023-01-26T15:39:12.188Z,101925.84
2023-01-26T15:41:40.214Z,101927.66
2023-01-26T15:44:15.885Z,101932.91
2023-01-26T15:46:44.737Z,101922.16
2023-01-26T15:49:12.537Z,101916.75
2023-01-26T15:51:40.645Z,101913.06
2023-01-26T15:54:11.157Z,101913.06
2023-01-26T15:56:39.243Z,101910.31
2023-01-26T15:59:07.148Z,101908.50
2023-01-26T16:01:36.537Z,101908.38
2023-01-26T16:04:04.299Z,101915.59
2023-01-26T16:06:33.817Z,101893.06
2023-01-26T16:09:01.639Z,101893.94
2023-01-26T16:11:32.488Z,101893.84
2023-01-26T16:14:04.102Z,101888.44
2023-01-26T16:16:33.518Z,101902.75
2023-01-26T16:19:02.827Z,101903.63
2023-01-26T16:21:34.991Z,101902.69
2023-01-26T16:24:03.633Z,101898.31
2023-01-26T16:26:32.522Z,101908.03
2023-01-26T16:29:00.407Z,101906.22
2023-01-26T16:31:30.464Z,101903.47
2023-01-26T16:33:59.019Z,101905.28
2023-01-26T16:36:28.608Z,101908.81
2023-01-26T16:38:56.567Z,101907.06
2023-01-26T16:41:27.606Z,101906.03
2023-01-26T16:43:56.666Z,101911.44
2023-01-26T16:46:24.885Z,101912.31
2023-01-26T16:48:53.144Z,101917.69
2023-01-26T16:51:24.967Z,101913.16
2023-01-26T16:53:55.378Z,101919.41
2023-01-26T16:56:24.615Z,101915.81
2023-01-26T16:58:52.763Z,101906.78
2023-01-26T17:01:23.084Z,101914.75
2023-01-26T17:03:52.055Z,101915.72
2023-01-26T17:06:20.727Z,101907.53
2023-01-26T17:08:49.274Z,101916.50
2023-01-26T17:11:25.519Z,101909.22
2023-01-26T17:13:55.908Z,101904.78
2023-01-26T17:16:25.335Z,101910.06
2023-01-26T17:18:53.402Z,101920.00
2023-01-26T17:21:21.820Z,101905.53
2023-01-26T17:23:50.903Z,101914.50
2023-01-26T17:26:21.558Z,101915.28
2023-01-26T17:28:50.902Z,101910.75
2023-01-26T17:31:20.334Z,101911.66
2023-01-26T17:33:50.049Z,101917.00
2023-01-26T17:36:19.540Z,101907.06
2023-01-26T17:38:48.020Z,101916.06
2023-01-26T17:41:15.863Z,101919.66
2023-01-26T17:43:45.106Z,101920.47
2023-01-26T17:46:15.049Z,101915.94
2023-01-26T17:48:45.268Z,101921.34
2023-01-26T17:51:16.550Z,101918.59
2023-01-26T17:53:46.365Z,101918.53
2023-01-26T17:56:16.689Z,101912.19
2023-01-26T17:58:48.970Z,101899.56
2023-01-26T18:01:17.036Z,101913.13
2023-01-26T18:03:45.075Z,101918.41
2023-01-26T18:06:13.115Z,101923.81
2023-01-26T18:08:41.328Z,101922.00
2023-01-26T18:11:12.308Z,101922.81
2023-01-26T18:13:40.540Z,101924.63
2023-01-26T18:16:13.090Z,101917.34
2023-01-26T18:18:41.010Z,101921.94
2023-01-26T18:21:13.877Z,101919.06
2023-01-26T18:23:44.924Z,101924.47
2023-01-26T18:26:13.221Z,101929.88
2023-01-26T18:28:41.962Z,101923.53
2023-01-26T18:31:13.291Z,101910.84
2023-01-26T18:33:41.269Z,101918.06
2023-01-26T18:36:11.991Z,101918.88
2023-01-26T18:38:40.096Z,101926.97
2023-01-26T18:41:12.005Z,101923.28
2023-01-26T18:43:40.298Z,101917.06
2023-01-26T18:46:08.929Z,101914.28
2023-01-26T18:48:38.438Z,101913.34
2023-01-26T18:51:08.609Z,101916.94
2023-01-26T18:53:38.504Z,101924.13
2023-01-26T18:56:08.090Z,101928.59
2023-01-26T18:58:37.872Z,101916.84
2023-01-26T19:01:09.753Z,101915.88
2023-01-26T19:03:41.639Z,101915.88
2023-01-26T19:06:10.331Z,101920.34
2023-01-26T19:08:38.818Z,101912.22
2023-01-26T19:11:07.952Z,101909.47
2023-01-26T19:13:36.373Z,101913.94
2023-01-26T19:16:05.861Z,101907.59
2023-01-26T19:18:35.336Z,101902.19
2023-01-26T19:21:05.735Z,101896.72
2023-01-26T19:23:34.099Z,101906.66
2023-01-26T19:26:01.970Z,101908.34
2023-01-26T19:28:29.843Z,101906.53
2023-01-26T19:31:04.262Z,101901.88
2023-01-26T19:33:32.150Z,101906.47
2023-01-26T19:36:02.710Z,101902.81
2023-01-26T19:38:33.122Z,101900.06
2023-01-26T19:41:02.184Z,101907.25
2023-01-26T19:43:30.268Z,101909.94
2023-01-26T19:45:58.206Z,101909.00
2023-01-26T19:48:27.967Z,101910.78
2023-01-26T19:51:00.837Z,101907.03
2023-01-26T19:53:29.039Z,101909.88
2023-01-26T19:55:59.778Z,101906.09
2023-01-26T19:58:28.260Z,101912.41
2023-01-26T20:01:00.406Z,101915.88
2023-01-26T20:03:28.295Z,101909.69
2023-01-26T20:05:56.105Z,101907.75
2023-01-26T20:08:24.063Z,101910.38
2023-01-26T20:10:51.991Z,101907.63
2023-01-26T20:13:21.462Z,101918.38
2023-01-26T20:15:49.345Z,101914.78
2023-01-26T20:18:17.353Z,101908.50
2023-01-26T20:20:50.346Z,101903.03
2023-01-26T20:23:18.892Z,101910.31
2023-01-26T20:25:47.388Z,101901.31
2023-01-26T20:28:16.134Z,101907.63
2023-01-26T20:30:45.722Z,101901.31
2023-01-26T20:33:13.782Z,101909.44
2023-01-26T20:35:43.453Z,101900.53
2023-01-26T20:38:11.958Z,101898.72
2023-01-26T20:40:40.103Z,101903.22
2023-01-26T20:43:07.972Z,101901.47
2023-01-26T20:45:35.780Z,101895.19
2023-01-26T20:48:05.305Z,101904.13
2023-01-26T20:50:40.009Z,101896.94
2023-01-26T20:53:08.340Z,101895.22
2023-01-26T20:55:36.634Z,101895.19
2023-01-26T20:58:06.809Z,101896.94
2023-01-26T21:00:36.078Z,101898.75
2023-01-26T21:03:05.642Z,101896.00
2023-01-26T21:05:33.550Z,101896.00
2023-01-26T21:08:01.389Z,101894.16
2023-01-26T21:10:29.214Z,101891.44
2023-01-26T21:12:57.083Z,101890.50
2023-01-26T21:15:25.027Z,101885.97
2023-01-26T21:17:52.850Z,101882.38
2023-01-26T21:20:22.075Z,101880.50
2023-01-26T21:22:50.034Z,101871.50
2023-01-26T21:25:18.167Z,101877.81
2023-01-26T21:27:45.929Z,101879.56
2023-01-26T21:30:14.595Z,101877.75
2023-01-26T21:32:42.623Z,101877.75
2023-01-26T21:35:11.127Z,101874.09
2023-01-26T21:37:40.334Z,101876.75
2023-01-26T21:40:09.771Z,101872.28
2023-01-26T21:42:37.881Z,101871.34
2023-01-26T21:45:24.074Z,101875.78
2023-01-26T21:48:12.016Z,101870.47
2023-01-26T21:51:12.809Z,101871.34
2023-01-26T21:53:42.113Z,101872.22
2023-01-26T21:56:10.130Z,101876.66
2023-01-26T21:58:57.790Z,101873.91
2023-01-26T22:01:26.156Z,101873.00
2023-01-26T22:03:56.407Z,101873.84
2023-01-26T22:06:24.569Z,101874.72
2023-01-26T22:08:53.892Z,101871.97
2023-01-26T22:11:22.674Z,101873.72
2023-01-26T22:13:50.527Z,101877.34
2023-01-26T22:16:18.891Z,101879.09
2023-01-26T22:18:46.893Z,101871.84
2023-01-26T22:21:14.797Z,101867.31
2023-01-26T22:23:43.209Z,101863.69
2023-01-26T22:26:14.542Z,101855.56
2023-01-26T22:28:44.241Z,101853.78
2023-01-26T22:31:12.237Z,101858.25
2023-01-26T22:33:40.211Z,101860.09
2023-01-26T22:36:10.130Z,101855.56
2023-01-26T22:38:38.901Z,101865.50
2023-01-26T22:41:07.917Z,101860.09
2023-01-26T22:43:37.102Z,101861.91
2023-01-26T22:46:06.378Z,101860.97
2023-01-26T22:48:34.863Z,101855.56
2023-01-26T22:51:07.872Z,101860.97
2023-01-26T22:53:35.633Z,101868.25
2023-01-26T22:56:04.761Z,101868.38
2023-01-26T22:58:35.211Z,101869.16
2023-01-26T23:01:11.611Z,101865.56
2023-01-26T23:03:40.715Z,101867.44
2023-01-26T23:06:12.384Z,101868.25
2023-01-26T23:08:40.892Z,101863.81
2023-01-26T23:11:11.814Z,101865.63
2023-01-26T23:13:42.318Z,101857.50
2023-01-26T23:16:12.339Z,101863.81
2023-01-26T23:18:40.217Z,101862.97
2023-01-26T23:21:09.102Z,101860.19
2023-01-26T23:23:37.194Z,101863.84
2023-01-26T23:26:05.277Z,101867.44
2023-01-26T23:28:34.650Z,101868.31
2023-01-26T23:31:02.625Z,101864.72
2023-01-26T23:33:33.521Z,101862.91
2023-01-26T23:36:01.652Z,101869.25
2023-01-26T23:38:30.910Z,101859.31
2023-01-26T23:41:00.313Z,101856.63
2023-01-26T23:43:28.906Z,101860.25
2023-01-26T23:45:57.014Z,101865.66
2023-01-26T23:48:25.799Z,101857.56
2023-01-26T23:50:58.229Z,101860.25
2023-01-26T23:53:26.111Z,101864.84
2023-01-26T23:55:54.196Z,101857.63
2023-01-26T23:58:22.055Z,101858.50
